Time;durP1;ratioP1;P1;durP2;ratioP2;P2;SDS_P1;SDS_P2;PMS_P1;PMS_P2;Temp;Humidity;BMP_temperature;BMP_pressure;BME280_temperature;BME280_humidity;BME280_pressure;Samples;Min_cycle;Max_cycle;Signal;HPM_P1;HPM_P2
2022/12/25 00:01:19;;;;;;;1.30;0.52;;;6.60;99.90;;;;;;4453114;32;20098;-88
2022/12/25 00:03:44;;;;;;;0.40;0.40;;;6.50;99.90;;;;;;4452913;32;20094;-88
2022/12/25 00:06:10;;;;;;;1.10;0.88;;;6.40;99.90;;;;;;4451140;32;20081;-88
2022/12/25 00:08:37;;;;;;;1.17;0.95;;;6.40;99.90;;;;;;4452569;32;20660;-87
2022/12/25 00:11:07;;;;;;;3.65;1.30;;;6.50;99.90;;;;;;4446834;32;20097;-86
2022/12/25 00:13:33;;;;;;;0.50;0.50;;;6.40;99.90;;;;;;4442625;32;20087;-87
2022/12/25 00:16:03;;;;;;;2.92;1.42;;;6.30;99.90;;;;;;4446861;32;20501;-88
2022/12/25 00:18:29;;;;;;;0.40;0.40;;;6.30;99.90;;;;;;4449352;32;20080;-87
2022/12/25 00:21:01;;;;;;;1.10;0.85;;;6.30;99.90;;;;;;4452445;32;20186;-87
2022/12/25 00:23:27;;;;;;;1.70;0.82;;;6.30;99.90;;;;;;4454123;32;20080;-88
2022/12/25 00:25:53;;;;;;;0.40;0.40;;;6.30;99.90;;;;;;4451800;32;20119;-88
2022/12/25 00:28:20;;;;;;;1.83;1.00;;;6.30;99.90;;;;;;4451258;32;20089;-87
2022/12/25 00:30:46;;;;;;;1.25;0.77;;;6.20;99.90;;;;;;4450427;32;20104;-88
2022/12/25 00:33:11;;;;;;;0.52;0.52;;;6.30;99.90;;;;;;4450887;32;20168;-88
2022/12/25 00:35:38;;;;;;;0.52;0.52;;;6.20;99.90;;;;;;4451501;32;20418;-87
2022/12/25 00:38:03;;;;;;;2.22;0.60;;;6.20;99.90;;;;;;4451637;32;20065;-87
2022/12/25 00:40:29;;;;;;;0.60;0.60;;;6.00;99.90;;;;;;4449461;32;20209;-86
2022/12/25 00:42:55;;;;;;;0.80;0.70;;;5.80;99.90;;;;;;4439156;32;20187;-86
2022/12/25 00:45:20;;;;;;;0.30;0.30;;;5.70;99.90;;;;;;4449456;32;20064;-87
2022/12/25 00:47:46;;;;;;;3.10;0.82;;;5.70;99.90;;;;;;4449837;32;20077;-87
2022/12/25 00:50:12;;;;;;;18.98;1.08;;;5.70;99.90;;;;;;4435542;32;20306;-86
2022/12/25 00:52:38;;;;;;;0.57;0.57;;;5.70;99.90;;;;;;4449951;32;20096;-86
2022/12/25 00:55:03;;;;;;;0.77;0.77;;;5.70;99.90;;;;;;4450532;32;20125;-87
2022/12/25 00:57:29;;;;;;;0.73;0.60;;;5.70;99.90;;;;;;4448739;32;20141;-87
2022/12/25 00:59:55;;;;;;;0.45;0.45;;;5.80;99.90;;;;;;4448944;32;20076;-86
2022/12/25 01:02:24;;;;;;;0.40;0.40;;;5.80;99.90;;;;;;4448429;32;20077;-87
2022/12/25 01:04:51;;;;;;;2.58;1.70;;;5.80;99.90;;;;;;4447760;32;20065;-88
2022/12/25 01:07:17;;;;;;;0.40;0.40;;;5.90;99.90;;;;;;4446048;32;20093;-86
2022/12/25 01:10:44;;;;;;;5.62;1.48;;;5.80;99.90;;;;;;4444144;32;20060;-86
2022/12/25 01:12:31;;;;;;;8.98;3.70;;;5.90;99.90;;;;;;4420712;32;20069;-86
2022/12/25 01:14:57;;;;;;;0.40;0.40;;;5.90;99.90;;;;;;4439069;32;20060;-87
2022/12/25 01:17:23;;;;;;;0.45;0.45;;;5.70;99.90;;;;;;4444030;32;20089;-86
2022/12/25 01:19:49;;;;;;;0.52;0.52;;;5.60;99.90;;;;;;4444280;32;20120;-87
2022/12/25 01:22:15;;;;;;;1.67;1.58;;;5.50;99.90;;;;;;4446636;32;20069;-87
2022/12/25 01:24:42;;;;;;;0.62;0.62;;;5.50;99.90;;;;;;4447957;32;20529;-87
2022/12/25 01:27:08;;;;;;;0.30;0.30;;;5.50;99.90;;;;;;4445333;32;20101;-87
2022/12/25 01:29:33;;;;;;;6.93;0.90;;;5.50;99.90;;;;;;4446097;32;20115;-87
2022/12/25 01:32:01;;;;;;;0.40;0.40;;;5.50;99.90;;;;;;4446955;32;20101;-87
2022/12/25 01:34:27;;;;;;;0.50;0.50;;;5.50;99.90;;;;;;4453691;32;20089;-86
2022/12/25 01:36:55;;;;;;;0.37;0.37;;;5.30;99.90;;;;;;4450343;32;20086;-87
2022/12/25 01:39:21;;;;;;;0.30;0.30;;;5.20;99.90;;;;;;4447225;32;20511;-86
2022/12/25 01:41:47;;;;;;;0.62;0.62;;;5.20;99.90;;;;;;4439655;32;20144;-86
2022/12/25 01:44:14;;;;;;;0.50;0.50;;;5.20;99.90;;;;;;4437279;32;20081;-87
2022/12/25 01:46:42;;;;;;;0.50;0.50;;;5.10;99.90;;;;;;4432862;32;20871;-88
2022/12/25 01:49:14;;;;;;;1.00;0.98;;;5.00;99.90;;;;;;4448159;32;20061;-86
2022/12/25 01:51:44;;;;;;;0.40;0.40;;;5.00;99.90;;;;;;4445504;32;20065;-87
2022/12/25 01:54:16;;;;;;;4.45;1.40;;;5.10;99.90;;;;;;4447759;32;20088;-88
2022/12/25 01:56:44;;;;;;;0.40;0.40;;;5.00;99.90;;;;;;4448323;32;20077;-87
2022/12/25 01:59:11;;;;;;;0.55;0.55;;;4.90;99.90;;;;;;4447704;32;20149;-86
2022/12/25 02:01:37;;;;;;;0.40;0.40;;;4.90;99.90;;;;;;4448763;32;20077;-87
2022/12/25 02:04:11;;;;;;;0.30;0.30;;;4.90;99.90;;;;;;4452225;32;20350;-87
2022/12/25 02:06:37;;;;;;;0.77;0.77;;;4.90;99.90;;;;;;4448175;32;20069;-87
2022/12/25 02:09:03;;;;;;;0.40;0.40;;;4.90;99.90;;;;;;4447116;32;20094;-87
2022/12/25 02:12:00;;;;;;;0.32;0.32;;;4.80;99.90;;;;;;4438575;32;20041;-86
2022/12/25 02:14:14;;;;;;;0.30;0.30;;;4.80;99.90;;;;;;4428022;32;20081;-86
2022/12/25 02:16:42;;;;;;;2.42;0.95;;;4.80;99.90;;;;;;4447573;32;20113;-87
2022/12/25 02:19:18;;;;;;;0.43;0.43;;;4.70;99.90;;;;;;4446904;32;21564;-87
2022/12/25 02:22:01;;;;;;;0.70;0.70;;;4.50;99.90;;;;;;4437573;32;20076;-87
2022/12/25 02:24:48;;;;;;;0.40;0.40;;;4.40;99.90;;;;;;4447403;32;20112;-87
2022/12/25 02:27:31;;;;;;;0.30;0.30;;;4.40;99.90;;;;;;4446118;32;20084;-87
2022/12/25 02:30:02;;;;;;;0.60;0.60;;;4.40;99.90;;;;;;4425153;32;20085;-87
2022/12/25 02:32:31;;;;;;;0.68;0.68;;;4.30;99.90;;;;;;4447434;32;20098;-87
2022/12/25 02:35:20;;;;;;;0.75;0.75;;;4.40;99.90;;;;;;4433068;32;20137;-87
2022/12/25 02:37:55;;;;;;;0.70;0.70;;;4.50;99.90;;;;;;4433569;32;20087;-87
2022/12/25 02:40:29;;;;;;;0.40;0.40;;;4.30;99.90;;;;;;4439468;32;20077;-86
2022/12/25 03:06:41;;;;;;;0.50;0.50;;;5.10;99.90;;;;;;4434947;32;20089;-87
2022/12/25 03:08:32;;;;;;;2.53;1.05;;;5.10;99.90;;;;;;4433152;32;20450;-87
2022/12/25 03:11:33;;;;;;;0.40;0.40;;;5.10;99.90;;;;;;4438448;32;20077;-87
2022/12/25 03:13:52;;;;;;;0.57;0.57;;;5.00;99.90;;;;;;4422843;32;20373;-87
2022/12/25 03:16:51;;;;;;;0.83;0.53;;;4.90;99.90;;;;;;4445911;32;20171;-88
2022/12/25 03:26:53;;;;;;;0.60;0.60;;;4.90;99.90;;;;;;4434105;32;20210;-87
2022/12/25 03:26:55;;;;;;;0.60;0.60;;;4.80;99.90;;;;;;4434607;32;20081;-87
2022/12/25 03:27:28;;;;;;;0.40;0.40;;;4.60;99.90;;;;;;4438826;32;20521;-87
2022/12/25 03:31:26;;;;;;;0.60;0.60;;;4.70;99.90;;;;;;4446140;32;20085;-87
2022/12/25 03:32:49;;;;;;;0.40;0.40;;;4.80;99.90;;;;;;4434000;32;20057;-87
2022/12/25 03:35:22;;;;;;;0.32;0.32;;;4.90;99.90;;;;;;4433581;32;20082;-87
2022/12/25 03:45:03;;;;;;;0.80;0.68;;;4.60;99.90;;;;;;4417353;32;20485;-87
2022/12/25 04:36:32;;;;;;;0.37;0.37;;;3.60;99.90;;;;;;4436918;32;20073;-87
2022/12/25 04:37:17;;;;;;;3.28;1.35;;;3.70;99.90;;;;;;4433216;32;20065;-87
2022/12/25 04:39:43;;;;;;;0.80;0.80;;;3.60;99.90;;;;;;4447312;32;20084;-87
2022/12/25 04:42:08;;;;;;;1.37;1.25;;;3.60;99.90;;;;;;4435850;32;20081;-87
2022/12/25 04:44:34;;;;;;;3.33;0.62;;;3.80;99.90;;;;;;4436935;32;20174;-87
2022/12/25 04:47:00;;;;;;;0.40;0.40;;;3.80;99.90;;;;;;4449626;32;20587;-87
2022/12/25 04:49:25;;;;;;;0.62;0.62;;;3.80;99.90;;;;;;4448611;32;20110;-87
2022/12/25 04:51:51;;;;;;;0.40;0.40;;;3.50;99.90;;;;;;4447885;32;20070;-87
2022/12/25 04:54:16;;;;;;;0.50;0.50;;;3.40;99.90;;;;;;4447845;32;20102;-87
2022/12/25 04:56:42;;;;;;;0.30;0.30;;;3.30;99.90;;;;;;4446876;32;20077;-87
2022/12/25 04:59:07;;;;;;;0.40;0.40;;;3.40;99.90;;;;;;4447465;32;20093;-87
2022/12/25 05:01:33;;;;;;;1.08;0.73;;;3.30;99.90;;;;;;4449529;32;20097;-87
2022/12/25 05:03:58;;;;;;;0.50;0.50;;;3.20;99.90;;;;;;4446367;32;20188;-87
2022/12/25 05:06:24;;;;;;;0.50;0.50;;;3.20;99.90;;;;;;4446454;32;20473;-87
2022/12/25 05:08:50;;;;;;;0.32;0.32;;;3.30;99.90;;;;;;4446383;32;20064;-87
2022/12/25 05:11:16;;;;;;;0.30;0.30;;;3.20;99.90;;;;;;4434817;32;20149;-87
2022/12/25 05:13:42;;;;;;;0.68;0.68;;;3.20;99.90;;;;;;4434825;32;20135;-87
2022/12/25 05:16:13;;;;;;;0.43;0.43;;;3.20;99.90;;;;;;4447905;32;20077;-87
2022/12/25 05:18:38;;;;;;;0.60;0.60;;;3.20;99.90;;;;;;4447380;32;20490;-87
2022/12/25 05:21:04;;;;;;;2.10;0.85;;;3.20;99.90;;;;;;4448161;32;20076;-87
2022/12/25 05:23:31;;;;;;;0.40;0.40;;;3.10;99.90;;;;;;4448294;32;20136;-86
2022/12/25 05:25:56;;;;;;;0.62;0.62;;;3.00;99.90;;;;;;4446737;32;20086;-87
2022/12/25 05:28:22;;;;;;;3.10;0.85;;;2.80;99.90;;;;;;4446423;32;20120;-87
2022/12/25 05:30:47;;;;;;;1.25;1.15;;;2.80;99.90;;;;;;4447012;32;20598;-86
2022/12/25 05:33:13;;;;;;;1.40;0.88;;;2.70;99.90;;;;;;4446948;32;20065;-88
2022/12/25 05:35:39;;;;;;;0.30;0.30;;;2.70;99.90;;;;;;4450013;32;20170;-87
2022/12/25 05:38:06;;;;;;;0.40;0.40;;;2.70;99.90;;;;;;4447302;32;20121;-86
2022/12/25 05:40:33;;;;;;;0.40;0.40;;;2.70;99.90;;;;;;4442971;32;20092;-87
2022/12/25 05:42:58;;;;;;;1.17;0.98;;;2.80;99.90;;;;;;4433838;32;20429;-87
2022/12/25 05:45:24;;;;;;;0.50;0.50;;;2.90;99.90;;;;;;4440781;32;20076;-87
2022/12/25 05:47:49;;;;;;;0.47;0.47;;;3.00;99.90;;;;;;4444923;32;20148;-87
2022/12/25 05:50:15;;;;;;;0.43;0.43;;;3.00;99.90;;;;;;4446480;32;20105;-87
2022/12/25 05:52:41;;;;;;;0.60;0.60;;;3.00;99.90;;;;;;4447139;32;20131;-87
2022/12/25 05:55:07;;;;;;;2.85;1.60;;;2.90;99.90;;;;;;4443842;32;20096;-87
2022/12/25 05:57:32;;;;;;;0.40;0.40;;;2.90;99.90;;;;;;4447069;32;20116;-87
2022/12/25 05:59:57;;;;;;;1.33;1.23;;;2.90;99.90;;;;;;4446904;32;20069;-87
2022/12/25 06:02:24;;;;;;;3.58;0.62;;;2.90;99.90;;;;;;4447316;32;20085;-87
2022/12/25 06:04:50;;;;;;;0.52;0.52;;;2.90;99.90;;;;;;4449035;32;20081;-87
2022/12/25 06:07:16;;;;;;;0.40;0.40;;;2.80;99.90;;;;;;4449112;32;20104;-87
2022/12/25 06:09:41;;;;;;;0.50;0.50;;;2.80;99.90;;;;;;4446030;32;20084;-87
2022/12/25 06:12:08;;;;;;;0.50;0.50;;;2.70;99.90;;;;;;4433808;32;20120;-86
2022/12/25 06:14:35;;;;;;;0.50;0.50;;;2.80;99.90;;;;;;4436291;32;20088;-86
2022/12/25 06:17:02;;;;;;;0.37;0.37;;;2.70;99.90;;;;;;4446557;32;20574;-86
2022/12/25 06:19:27;;;;;;;0.30;0.30;;;2.70;99.90;;;;;;4443691;32;20068;-86
2022/12/25 06:21:53;;;;;;;3.92;1.27;;;2.70;99.90;;;;;;4446188;32;20089;-85
2022/12/25 06:24:19;;;;;;;0.40;0.40;;;2.70;99.90;;;;;;4444470;32;20485;-86
2022/12/25 06:26:45;;;;;;;0.40;0.40;;;2.60;99.90;;;;;;4446599;32;20100;-86
2022/12/25 06:29:11;;;;;;;1.12;1.02;;;2.60;99.90;;;;;;4444554;32;20085;-86
2022/12/25 06:31:36;;;;;;;0.40;0.40;;;2.60;99.90;;;;;;4445615;32;20130;-85
2022/12/25 06:34:02;;;;;;;0.85;0.68;;;2.60;99.90;;;;;;4445219;32;20104;-87
2022/12/25 06:36:28;;;;;;;0.50;0.50;;;2.60;99.90;;;;;;4445478;32;20119;-86
2022/12/25 06:38:54;;;;;;;0.60;0.60;;;2.60;99.90;;;;;;4447300;32;20057;-86
2022/12/25 06:41:23;;;;;;;0.90;0.85;;;2.50;99.90;;;;;;4436133;32;20131;-87
2022/12/25 06:43:50;;;;;;;0.30;0.30;;;2.60;99.90;;;;;;4434180;32;20572;-87
2022/12/25 06:46:16;;;;;;;0.77;0.77;;;2.50;99.90;;;;;;4445572;32;20183;-86
2022/12/25 06:48:49;;;;;;;0.60;0.60;;;2.50;99.90;;;;;;4448557;32;20070;-86
2022/12/25 06:51:19;;;;;;;0.40;0.40;;;2.60;99.90;;;;;;4446573;32;20088;-86
2022/12/25 06:53:47;;;;;;;0.52;0.52;;;2.60;99.90;;;;;;4447022;32;20142;-86
2022/12/25 06:56:15;;;;;;;0.60;0.50;;;2.60;99.90;;;;;;4447540;32;20076;-86
2022/12/25 06:58:43;;;;;;;0.55;0.55;;;2.60;99.90;;;;;;4447529;32;20073;-87
2022/12/25 07:01:13;;;;;;;0.30;0.30;;;2.60;99.90;;;;;;4449320;32;20159;-87
2022/12/25 07:03:41;;;;;;;0.40;0.40;;;2.70;99.90;;;;;;4446138;32;20490;-86
2022/12/25 07:06:06;;;;;;;0.65;0.65;;;2.90;99.90;;;;;;4446149;32;20093;-86
2022/12/25 07:08:32;;;;;;;0.43;0.43;;;3.00;99.90;;;;;;4447525;32;20082;-87
2022/12/25 07:10:58;;;;;;;0.40;0.40;;;3.00;99.90;;;;;;4439232;32;20062;-87
2022/12/25 07:13:23;;;;;;;0.40;0.40;;;2.90;99.90;;;;;;4431102;32;20061;-87
2022/12/25 07:15:58;;;;;;;0.35;0.35;;;2.90;99.90;;;;;;4446217;32;20472;-86
2022/12/25 07:18:25;;;;;;;0.40;0.40;;;2.90;99.90;;;;;;4446974;32;20082;-87
2022/12/25 07:20:50;;;;;;;0.55;0.55;;;3.00;99.90;;;;;;4446274;32;20131;-86
2022/12/25 07:23:16;;;;;;;0.50;0.50;;;3.00;99.90;;;;;;4447829;32;20072;-87
2022/12/25 07:25:41;;;;;;;0.73;0.60;;;3.00;99.90;;;;;;4447225;32;20082;-86
2022/12/25 07:28:07;;;;;;;0.65;0.65;;;2.80;99.90;;;;;;4445439;32;20120;-86
2022/12/25 07:30:32;;;;;;;0.70;0.70;;;2.80;99.90;;;;;;4446304;32;20097;-87
2022/12/25 07:32:58;;;;;;;0.40;0.40;;;2.90;99.90;;;;;;4443560;32;113137;-85
2022/12/25 07:35:23;;;;;;;0.40;0.40;;;2.80;99.90;;;;;;4445782;32;20555;-86
2022/12/25 07:37:49;;;;;;;0.37;0.37;;;2.70;99.90;;;;;;4452566;32;20089;-86
2022/12/25 07:40:15;;;;;;;0.40;0.40;;;2.60;99.90;;;;;;4441492;32;20049;-86
2022/12/25 07:42:40;;;;;;;0.40;0.40;;;2.70;99.90;;;;;;4442869;32;20121;-86
2022/12/25 07:45:06;;;;;;;0.40;0.40;;;2.60;99.90;;;;;;4437767;32;20218;-86
2022/12/25 07:47:32;;;;;;;0.45;0.45;;;2.60;99.90;;;;;;4446956;32;20185;-86
2022/12/25 07:49:57;;;;;;;0.60;0.60;;;2.50;99.90;;;;;;4445730;32;20563;-85
2022/12/25 07:52:23;;;;;;;0.60;0.60;;;2.50;99.90;;;;;;4447986;32;20077;-85
2022/12/25 07:55:27;;;;;;;0.40;0.40;;;2.50;99.90;;;;;;4447722;32;20088;-85
2022/12/25 07:57:53;;;;;;;0.65;0.65;;;2.50;99.90;;;;;;4447483;32;20287;-85
2022/12/25 08:00:19;;;;;;;0.60;0.60;;;2.60;99.90;;;;;;4448884;32;20133;-86
2022/12/25 08:02:48;;;;;;;0.40;0.40;;;2.60;99.90;;;;;;4452815;32;20438;-85
2022/12/25 08:05:17;;;;;;;0.57;0.57;;;2.70;99.90;;;;;;4450654;32;20062;-85
2022/12/25 08:07:42;;;;;;;0.30;0.30;;;2.70;99.90;;;;;;4453028;32;20068;-85
2022/12/25 08:10:08;;;;;;;0.43;0.43;;;2.70;99.90;;;;;;4445315;32;20754;-85
2022/12/25 08:12:33;;;;;;;0.40;0.40;;;2.60;99.90;;;;;;4434704;32;20069;-85
2022/12/25 08:14:59;;;;;;;0.70;0.70;;;2.70;99.90;;;;;;4439988;32;20145;-85
2022/12/25 08:17:24;;;;;;;8.77;0.98;;;2.70;99.90;;;;;;4447716;32;20093;-85
2022/12/25 08:19:52;;;;;;;0.40;0.40;;;2.70;99.90;;;;;;4447379;32;20061;-85
2022/12/25 08:22:17;;;;;;;0.40;0.40;;;2.70;99.90;;;;;;4449730;32;20084;-85
2022/12/25 08:24:43;;;;;;;1.52;0.73;;;2.80;99.90;;;;;;4453336;32;20520;-84
2022/12/25 08:27:10;;;;;;;0.40;0.40;;;2.80;99.90;;;;;;4451693;32;20126;-85
2022/12/25 08:29:35;;;;;;;0.45;0.45;;;2.80;99.90;;;;;;4449728;32;20085;-85
2022/12/25 08:32:01;;;;;;;0.50;0.50;;;2.80;99.90;;;;;;4449042;32;20072;-85
2022/12/25 08:34:26;;;;;;;0.68;0.65;;;2.90;99.90;;;;;;4446756;32;20069;-84
2022/12/25 08:36:52;;;;;;;0.37;0.37;;;2.80;99.90;;;;;;4449210;32;20408;-84
2022/12/25 08:39:17;;;;;;;0.40;0.40;;;2.80;99.90;;;;;;4449923;32;20074;-86
2022/12/25 08:41:43;;;;;;;6.12;1.23;;;2.90;99.90;;;;;;4439585;32;20076;-85
2022/12/25 08:44:10;;;;;;;0.37;0.37;;;3.00;99.90;;;;;;4434479;32;20074;-85
2022/12/25 08:46:38;;;;;;;33.67;1.77;;;3.00;99.90;;;;;;4447074;32;20073;-85
2022/12/25 08:49:04;;;;;;;0.68;0.68;;;3.10;99.90;;;;;;4446871;32;20092;-85
2022/12/25 08:51:29;;;;;;;0.37;0.37;;;3.10;99.90;;;;;;4445766;32;20835;-85
2022/12/25 08:53:59;;;;;;;0.40;0.40;;;3.00;99.90;;;;;;4448250;32;20085;-85
2022/12/25 08:56:25;;;;;;;0.65;0.65;;;3.00;99.90;;;;;;4448858;32;20532;-85
2022/12/25 08:58:50;;;;;;;0.40;0.40;;;3.00;99.90;;;;;;4450042;32;20061;-85
2022/12/25 09:01:15;;;;;;;0.40;0.40;;;3.00;99.90;;;;;;4449008;32;20132;-85
2022/12/25 09:03:42;;;;;;;0.40;0.40;;;3.10;99.90;;;;;;4445637;32;20077;-86
2022/12/25 09:06:10;;;;;;;0.57;0.57;;;3.20;99.90;;;;;;4447726;32;20119;-84
2022/12/25 09:08:36;;;;;;;0.40;0.40;;;3.20;99.90;;;;;;4448181;32;20061;-85
2022/12/25 09:11:04;;;;;;;0.30;0.30;;;3.30;99.90;;;;;;4441402;32;20422;-85
2022/12/25 09:13:31;;;;;;;0.55;0.55;;;3.40;99.90;;;;;;4434908;32;20528;-85
2022/12/25 09:15:57;;;;;;;0.60;0.60;;;3.50;99.90;;;;;;4447237;32;20548;-85
2022/12/25 09:18:22;;;;;;;0.43;0.43;;;3.50;99.90;;;;;;4446786;32;20112;-85
2022/12/25 09:21:07;;;;;;;0.43;0.43;;;3.60;99.90;;;;;;4449434;32;20135;-86
2022/12/25 09:23:33;;;;;;;0.50;0.50;;;3.60;99.90;;;;;;4448809;32;21212;-86
2022/12/25 09:26:04;;;;;;;1.65;0.80;;;3.70;99.90;;;;;;4450934;32;20502;-86
2022/12/25 09:28:29;;;;;;;0.60;0.60;;;3.70;99.90;;;;;;4450144;32;20085;-85
2022/12/25 09:30:55;;;;;;;0.50;0.50;;;3.70;99.90;;;;;;4452046;32;20073;-86
2022/12/25 09:33:22;;;;;;;0.47;0.47;;;3.80;99.90;;;;;;4450750;32;20058;-86
2022/12/25 09:35:57;;;;;;;0.32;0.32;;;3.70;99.90;;;;;;4452035;32;20088;-86
2022/12/25 09:38:23;;;;;;;0.57;0.57;;;3.70;99.90;;;;;;4449303;32;20496;-85
2022/12/25 09:40:58;;;;;;;0.70;0.70;;;3.80;99.90;;;;;;4443116;32;20131;-86
2022/12/25 09:43:26;;;;;;;0.65;0.65;;;3.90;99.90;;;;;;4443980;32;20102;-86
2022/12/25 09:45:52;;;;;;;0.70;0.70;;;3.90;99.90;;;;;;4450621;32;20089;-85
2022/12/25 09:48:20;;;;;;;1.65;1.35;;;4.00;99.90;;;;;;4448136;32;20080;-85
2022/12/25 09:50:59;;;;;;;0.73;0.73;;;4.00;99.90;;;;;;4446798;32;20085;-85
2022/12/25 09:53:27;;;;;;;0.70;0.70;;;4.10;99.90;;;;;;4448309;32;20581;-85
2022/12/25 09:56:05;;;;;;;1.00;0.93;;;4.10;99.90;;;;;;4445033;32;20089;-86
2022/12/25 09:58:33;;;;;;;0.40;0.40;;;4.10;99.90;;;;;;4447579;32;20226;-85
2022/12/25 10:01:32;;;;;;;0.50;0.50;;;4.10;99.90;;;;;;4444887;32;20069;-85
2022/12/25 10:04:20;;;;;;;0.62;0.62;;;4.20;99.90;;;;;;4446867;32;20085;-86
2022/12/25 10:07:05;;;;;;;5.47;1.70;;;4.30;99.90;;;;;;4432101;32;21516;-86
2022/12/25 10:09:58;;;;;;;1.40;1.25;;;4.40;99.90;;;;;;4448233;32;20151;-86
2022/12/25 10:12:36;;;;;;;0.75;0.75;;;4.40;99.90;;;;;;4421323;32;20224;-86
2022/12/25 10:15:29;;;;;;;1.75;1.05;;;4.40;99.90;;;;;;4440656;32;20072;-86
2022/12/25 10:18:18;;;;;;;2.20;1.62;;;4.50;99.90;;;;;;4435594;32;20093;-86
2022/12/25 10:20:52;;;;;;;0.40;0.40;;;4.60;99.90;;;;;;4445037;32;20062;-86
2022/12/25 10:23:24;;;;;;;1.25;1.15;;;4.60;99.90;;;;;;4446357;32;21571;-87
2022/12/25 10:25:52;;;;;;;0.93;0.93;;;4.70;99.90;;;;;;4446272;32;20434;-86
2022/12/25 10:28:27;;;;;;;14.45;2.10;;;4.80;99.90;;;;;;4446879;32;20240;-86
2022/12/25 10:30:56;;;;;;;3.20;1.17;;;4.80;99.90;;;;;;4446779;32;20064;-86
2022/12/25 10:33:23;;;;;;;0.70;0.70;;;4.90;99.90;;;;;;4446356;32;20146;-86
2022/12/25 10:35:49;;;;;;;7.72;1.23;;;5.00;99.90;;;;;;4445956;32;20072;-86
2022/12/25 10:38:17;;;;;;;1.48;0.90;;;4.90;99.90;;;;;;4448297;32;20082;-86
2022/12/25 10:41:13;;;;;;;1.15;1.05;;;5.00;99.90;;;;;;4441756;32;20088;-86
2022/12/25 10:43:44;;;;;;;0.40;0.40;;;4.90;99.90;;;;;;4422992;32;20093;-87
2022/12/25 10:46:11;;;;;;;0.40;0.40;;;4.90;99.90;;;;;;4446347;32;20081;-87
2022/12/25 10:48:42;;;;;;;0.47;0.47;;;5.00;99.90;;;;;;4447148;32;20567;-87
2022/12/25 10:51:07;;;;;;;;;;;5.00;99.90;;;;;;4447406;32;20096;-87
2022/12/25 10:53:39;;;;;;;3.00;0.95;;;5.10;99.90;;;;;;4445337;32;19999;-86
2022/12/25 10:56:05;;;;;;;1.20;1.02;;;5.10;99.90;;;;;;4448998;32;20073;-87
2022/12/25 10:58:32;;;;;;;0.80;0.77;;;5.10;99.90;;;;;;4443733;32;20089;-86
2022/12/25 11:01:02;;;;;;;2.90;0.80;;;5.00;99.90;;;;;;4444555;32;20118;-86
2022/12/25 11:03:30;;;;;;;0.45;0.45;;;5.00;99.90;;;;;;4444947;32;20157;-85
2022/12/25 11:05:56;;;;;;;0.52;0.52;;;4.90;99.90;;;;;;4447131;32;20085;-86
2022/12/25 11:08:26;;;;;;;0.60;0.60;;;5.00;99.90;;;;;;4448532;32;20065;-86
2022/12/25 11:10:55;;;;;;;2.92;0.70;;;5.10;99.90;;;;;;4441766;32;20130;-86
2022/12/25 11:13:28;;;;;;;0.40;0.40;;;5.10;99.90;;;;;;4434953;32;20068;-87
2022/12/25 11:16:23;;;;;;;1.35;0.85;;;5.20;99.90;;;;;;4441349;32;20062;-86
2022/12/25 11:18:51;;;;;;;0.80;0.65;;;5.30;99.90;;;;;;4432361;32;20089;-87
2022/12/25 11:21:29;;;;;;;1.23;0.80;;;5.30;99.90;;;;;;4444826;32;20154;-87
2022/12/25 11:23:59;;;;;;;1.08;0.93;;;5.30;99.90;;;;;;4448696;32;20081;-87
2022/12/25 11:26:25;;;;;;;2.47;1.45;;;5.30;99.90;;;;;;4449770;32;20077;-86
2022/12/25 11:28:53;;;;;;;0.40;0.40;;;5.30;99.90;;;;;;4450051;32;20169;-87
2022/12/25 11:31:22;;;;;;;1.80;0.88;;;5.40;99.90;;;;;;4448133;32;20529;-86
2022/12/25 11:33:59;;;;;;;0.43;0.43;;;5.40;99.90;;;;;;4444294;32;20145;-86
2022/12/25 11:36:29;;;;;;;0.50;0.50;;;5.40;99.90;;;;;;4447259;32;20105;-86
2022/12/25 11:39:08;;;;;;;0.70;0.70;;;5.40;99.90;;;;;;4433701;32;20093;-87
2022/12/25 11:41:37;;;;;;;0.50;0.50;;;5.40;99.90;;;;;;4437353;32;20181;-86
2022/12/25 11:44:22;;;;;;;0.62;0.60;;;5.40;99.90;;;;;;4436810;32;20085;-85
2022/12/25 11:46:55;;;;;;;1.75;1.30;;;5.50;99.90;;;;;;4446086;32;20208;-86
2022/12/25 11:49:21;;;;;;;9.48;2.15;;;5.60;99.90;;;;;;4448433;32;20066;-86
2022/12/25 11:51:50;;;;;;;0.90;0.50;;;5.60;99.90;;;;;;4447274;32;20066;-86
2022/12/25 11:54:45;;;;;;;1.05;0.95;;;5.60;99.90;;;;;;4445236;32;20445;-85
2022/12/25 11:57:11;;;;;;;1.40;1.30;;;5.60;99.90;;;;;;4436602;32;20096;-86
2022/12/25 11:59:50;;;;;;;0.88;0.88;;;5.70;99.90;;;;;;4449829;32;20173;-86
2022/12/25 12:02:27;;;;;;;0.40;0.40;;;5.70;99.90;;;;;;4451954;32;20081;-86
2022/12/25 12:05:03;;;;;;;0.80;0.80;;;5.70;99.90;;;;;;4448783;32;20073;-86
2022/12/25 12:07:30;;;;;;;0.70;0.70;;;5.70;99.90;;;;;;4449102;32;20158;-86
2022/12/25 12:10:19;;;;;;;0.50;0.50;;;5.60;99.90;;;;;;4446558;32;20516;-86
2022/12/25 12:13:01;;;;;;;1.27;1.02;;;5.70;99.90;;;;;;4426134;32;20481;-85
2022/12/25 12:15:37;;;;;;;0.68;0.68;;;5.80;99.90;;;;;;4446481;32;20124;-85
2022/12/25 12:18:27;;;;;;;4.95;1.62;;;5.80;99.90;;;;;;4450411;32;20084;-86
2022/12/25 12:21:06;;;;;;;1.23;1.12;;;5.90;99.90;;;;;;4441496;32;20065;-86
2022/12/25 12:23:56;;;;;;;0.55;0.55;;;5.90;99.90;;;;;;4439498;32;20108;-86
2022/12/25 12:26:25;;;;;;;1.73;0.70;;;5.90;99.90;;;;;;4433460;32;20072;-86
2022/12/25 12:28:59;;;;;;;1.25;1.15;;;5.90;99.90;;;;;;4452069;32;20104;-86
2022/12/25 12:31:36;;;;;;;1.02;0.73;;;6.00;99.90;;;;;;4451499;32;20139;-86
2022/12/25 12:34:13;;;;;;;0.43;0.43;;;6.00;99.90;;;;;;4454247;32;20604;-86
2022/12/25 12:36:39;;;;;;;1.92;1.65;;;6.10;99.90;;;;;;4452630;32;20512;-86
2022/12/25 12:39:05;;;;;;;1.85;0.95;;;6.20;99.90;;;;;;4450058;32;20130;-85
2022/12/25 12:41:45;;;;;;;0.50;0.50;;;6.20;99.90;;;;;;4440375;32;20065;-85
2022/12/25 12:44:13;;;;;;;1.55;0.80;;;6.10;99.90;;;;;;4426230;32;20109;-86
2022/12/25 12:46:50;;;;;;;0.40;0.40;;;6.10;99.90;;;;;;4450030;32;20081;-86
2022/12/25 12:49:32;;;;;;;1.85;1.12;;;6.10;99.90;;;;;;4437989;32;20461;-85
2022/12/25 12:52:05;;;;;;;20.27;1.02;;;6.10;99.90;;;;;;4437738;32;20176;-86
2022/12/25 12:54:31;;;;;;;0.80;0.80;;;6.20;99.90;;;;;;4453212;32;20081;-86
2022/12/25 12:57:04;;;;;;;0.70;0.70;;;6.20;99.90;;;;;;4449918;32;20120;-86
2022/12/25 12:59:43;;;;;;;0.40;0.40;;;6.20;99.90;;;;;;4437226;32;20076;-85
2022/12/25 13:02:40;;;;;;;0.85;0.85;;;6.20;99.90;;;;;;4449917;32;20109;-87
2022/12/25 13:05:34;;;;;;;1.75;0.60;;;6.20;99.90;;;;;;4450514;32;20465;-85
2022/12/25 13:08:09;;;;;;;2.30;0.65;;;6.30;99.90;;;;;;4440889;32;20109;-85
2022/12/25 13:10:37;;;;;;;1.25;0.80;;;6.30;99.90;;;;;;4446820;32;20087;-85
2022/12/25 13:13:14;;;;;;;0.70;0.62;;;6.30;99.90;;;;;;4438337;32;20081;-85
2022/12/25 13:15:40;;;;;;;3.83;0.90;;;6.30;99.90;;;;;;4454074;32;20060;-85
2022/12/25 13:18:10;;;;;;;0.60;0.60;;;6.40;99.90;;;;;;4454448;32;20880;-85
2022/12/25 13:20:54;;;;;;;0.40;0.40;;;6.40;99.90;;;;;;4457187;32;20080;-87
2022/12/25 13:23:25;;;;;;;20.48;1.20;;;6.40;99.90;;;;;;4431760;32;20089;-87
2022/12/25 13:25:53;;;;;;;6.40;1.23;;;6.40;99.90;;;;;;4445948;32;20060;-87
2022/12/25 13:28:25;;;;;;;4.25;1.25;;;6.40;99.90;;;;;;4460136;32;20073;-87
2022/12/25 13:31:19;;;;;;;0.40;0.40;;;6.40;99.90;;;;;;4459499;32;20045;-87
2022/12/25 13:33:53;;;;;;;0.65;0.65;;;6.40;99.90;;;;;;4460672;32;20105;-87
2022/12/25 13:36:18;;;;;;;0.60;0.60;;;6.50;99.90;;;;;;4441745;32;20237;-87
2022/12/25 13:38:46;;;;;;;4.65;1.10;;;6.40;99.90;;;;;;4456754;32;20069;-87
2022/12/25 13:42:17;;;;;;;2.05;1.15;;;6.40;99.90;;;;;;4450101;32;20539;-87
2022/12/25 13:44:13;;;;;;;0.93;0.93;;;6.40;99.90;;;;;;4439559;32;20193;-87
2022/12/25 13:46:39;;;;;;;3.03;1.67;;;6.40;99.90;;;;;;4444621;32;20104;-88
2022/12/25 13:49:14;;;;;;;1.65;0.77;;;6.40;99.90;;;;;;4456364;32;20211;-88
2022/12/25 13:51:39;;;;;;;0.75;0.70;;;6.40;99.90;;;;;;4459484;32;20151;-87
2022/12/25 13:54:07;;;;;;;0.70;0.70;;;6.40;99.90;;;;;;4455829;32;20119;-87
2022/12/25 13:56:36;;;;;;;0.98;0.73;;;6.40;99.90;;;;;;4458883;32;20080;-87
2022/12/25 13:59:03;;;;;;;2.17;1.25;;;6.40;99.90;;;;;;4441494;32;20081;-86
2022/12/25 14:01:42;;;;;;;1.30;1.20;;;6.40;99.90;;;;;;4453064;32;20081;-87
2022/12/25 14:04:15;;;;;;;2.12;1.02;;;6.40;99.90;;;;;;4449217;32;20100;-86
2022/12/25 14:06:42;;;;;;;0.77;0.77;;;6.40;99.90;;;;;;4454523;32;20097;-86
2022/12/25 14:09:09;;;;;;;5.57;1.83;;;6.40;99.90;;;;;;4450828;32;20551;-86
2022/12/25 14:11:36;;;;;;;1.12;0.80;;;6.40;99.90;;;;;;4442529;32;20154;-85
2022/12/25 14:14:10;;;;;;;0.95;0.85;;;6.40;99.90;;;;;;4442169;32;20078;-86
2022/12/25 14:16:39;;;;;;;1.00;0.93;;;6.40;99.90;;;;;;4451288;32;20076;-85
2022/12/25 14:19:23;;;;;;;1.23;0.73;;;6.40;99.90;;;;;;4452605;32;20088;-86
2022/12/25 14:21:57;;;;;;;0.52;0.52;;;6.40;99.90;;;;;;4438119;32;20119;-86
2022/12/25 14:24:30;;;;;;;0.88;0.75;;;6.40;99.90;;;;;;4453592;32;20422;-84
2022/12/25 14:27:01;;;;;;;0.75;0.75;;;6.30;99.90;;;;;;4440863;32;20073;-87
2022/12/25 14:29:36;;;;;;;;;;;6.40;99.90;;;;;;4455978;32;20201;-85
2022/12/25 14:32:10;;;;;;;2.58;1.08;;;6.40;99.90;;;;;;4453394;32;20294;-85
2022/12/25 14:34:36;;;;;;;0.77;0.77;;;6.30;99.90;;;;;;4451752;32;20057;-85